M I D A S
Marine Information and Data Acquisition System
Tripno 426 of the Zeeleeuw from 2003-02-07 07:51:14 to 2003-02-07 13:05:54
Back to CruiseResearch ActivitiesStationsMapUnderway DataData graphs

EquipmentUnitsComment
TimeDGPSUTC
LatitudeDGPSDM.mWGS84
LongitudeDGPSDM.mWGS84
TemperatureSBE03/SBE38deg celciusITS90
ConductivitySBE21S/mITS90
SalinitySBE21 Practical Salinity Units
ChlorophylAChelsea fluorimeterg/lCalibrated in Aceton
Missing or incorrect values are displayed as -999
Sea surface data collected by the RV Zeeleeuw from 2003-02-07 07:51:14 to 2003-02-07 13:05:54
Time Latitude Longitude Temperature Conductivity Salinity ChlorophylA
2003-02-07 07:52:16 51°13.647 2°55.937 10.839273 0.703365 4.499469 -0.882377
2003-02-07 07:53:16 51°13.662 2°55.86 10.829965 0.703261 4.499614 -0.882377
2003-02-07 07:54:16 51°13.674 2°55.778 10.830057 0.703052 4.499513 -0.882377
2003-02-07 07:55:15 51°13.678 2°55.749 10.838902 0.702948 4.499658 -0.848668
2003-02-07 07:56:16 51°13.707 2°55.749 10.850014 0.702843 4.499646 -0.882377
2003-02-07 07:57:15 51°13.76 2°55.692 10.830752 0.702634 4.499153 -0.848668
2003-02-07 07:58:15 51°13.839 2°55.624 10.844134 0.702425 4.499757 -0.916087
2003-02-07 07:59:13 51°13.929 2°55.562 10.850153 0.702216 4.500127 -0.882377
2003-02-07 08:00:15 51°14.027 2°55.492 10.856264 0.702008 4.49979 -0.848668
2003-02-07 08:01:15 51°14.123 2°55.419 10.866957 0.701903 4.500172 -0.882377
2003-02-07 08:02:16 51°14.214 2°55.324 10.875797 0.701694 4.499836 -0.882377
2003-02-07 08:03:15 51°14.29 2°55.205 10.870706 0.701485 4.499892 -0.848668
2003-02-07 08:04:15 51°14.356 2°55.062 10.873853 0.701381 4.500352 -0.848668
2003-02-07 08:05:14 51°14.392 2°54.878 10.862375 0.701276 4.502228 -0.882377
2003-02-07 08:06:14 51°14.402 2°54.669 10.857977 0.700859 4.505337 -0.848668
2003-02-07 08:07:15 51°14.382 2°54.526 10.864272 0.700545 4.501919 -0.882377
2003-02-07 08:08:14 51°14.354 2°54.438 10.854412 0.700441 4.501594 -0.882377
2003-02-07 08:09:14 51°14.33 2°54.371 10.738807 0.700023 4.501474 -0.882377
2003-02-07 08:10:15 51°14.311 2°54.312 10.763289 0.69971 4.498922 -0.882377
2003-02-07 08:11:15 51°14.276 2°54.184 10.771586 0.699605 4.498753 -0.848668
2003-02-07 08:12:13 51°14.213 2°53.893 10.712507 0.699396 4.494246 -0.848668
2003-02-07 08:13:15 51°14.104 2°53.577 10.704851 0.699396 4.495347 -0.882377
2003-02-07 08:14:15 51°13.984 2°53.281 10.747015 0.699501 4.496617 -0.848668
2003-02-07 08:15:13 51°13.879 2°52.983 10.680023 0.699605 4.497415 -0.848668
2003-02-07 08:16:15 51°13.781 2°52.651 10.714826 0.69971 4.496403 -0.848668
2003-02-07 08:17:14 51°13.671 2°52.352 10.655603 0.700963 4.504717 -0.882377
2003-02-07 08:18:15 51°13.558 2°52.042 -999 0.701068 4.505436 -0.848668
2003-02-07 08:19:15 51°13.461 2°51.726 -999 0.701694 4.510066 -0.848668
2003-02-07 08:20:15 51°13.344 2°51.43 -999 0.702008 4.511514 -0.848668
2003-02-07 08:21:15 51°13.229 2°51.131 -999 0.70253 4.511717 -0.848668
2003-02-07 08:22:15 51°13.114 2°50.829 -999 0.702321 4.511856 -0.882377
2003-02-07 08:23:15 51°13 2°50.525 11.980008 0.060608 0.338919 -0.848668
2003-02-07 08:24:15 51°12.885 2°50.222 12.171059 0.007388 0.043379 -0.848668
2003-02-07 08:25:15 51°12.771 2°49.917 12.596624 0.006661 0.039672 -0.882377
2003-02-07 08:26:14 51°12.66 2°49.617 12.466141 0.017261 0.096238 -0.882377
2003-02-07 08:27:15 51°12.545 2°49.307 12.878919 0.015078 0.084407 -0.882377
2003-02-07 08:28:15 51°12.432 2°49.001 12.613215 0.017157 0.095663 -0.882377
2003-02-07 08:29:15 51°12.323 2°48.695 12.739181 0.016118 0.090012 -0.882377
2003-02-07 08:30:15 51°12.213 2°48.387 13.006311 0.016118 0.090002 -0.882377
2003-02-07 08:31:15 51°12.111 2°48.073 13.044391 0.01778 0.099038 -0.848668
2003-02-07 08:32:15 51°12.008 2°47.76 13.090104 0.015806 0.088313 -0.882377
2003-02-07 08:33:14 51°11.907 2°47.451 13.188409 0.017677 0.098467 -0.882377
2003-02-07 08:34:14 51°11.817 2°47.127 13.079496 0.021002 0.116675 -0.882377
2003-02-07 08:35:15 51°11.729 2°46.791 12.960227 0.016949 0.09453 -0.882377
2003-02-07 08:36:15 51°11.644 2°46.461 13.47912 0.015702 0.087749 -0.882377
2003-02-07 08:37:14 51°11.559 2°46.137 12.952603 0.015494 0.086629 -0.882377
2003-02-07 08:38:11 51°11.476 2°45.822 13.2576 0.016014 0.089454 -0.882377
2003-02-07 08:39:15 51°11.385 2°45.468 13.172497 0.018716 0.104163 -0.882377
2003-02-07 08:40:14 51°11.3 2°45.141 7.614574 0.773998 5.064161 0.97164
2003-02-07 08:41:15 51°11.213 2°44.804 7.566182 3.242211 32.972183 2.926785
2003-02-07 08:42:15 51°11.126 2°44.472 8.158669 3.156083 32.554958 3.095332
2003-02-07 08:43:15 51°11.047 2°44.136 -999 3.151767 32.553376 3.162751
2003-02-07 08:44:15 51°10.972 2°43.799 -999 3.133132 32.384525 3.162751
2003-02-07 08:45:14 51°10.893 2°43.45 -999 3.1345 32.410392 3.162751
2003-02-07 08:46:14 51°10.813 2°43.082 -999 3.138712 32.469676 3.095332
2003-02-07 08:47:15 51°10.735 2°42.706 -999 3.144397 32.521972 3.162751
2003-02-07 08:48:14 51°10.663 2°42.339 -999 3.145029 32.526642 3.027913
2003-02-07 08:49:16 51°10.587 2°41.953 -999 3.148293 32.559738 3.095332
2003-02-07 08:50:16 51°10.515 2°41.581 -999 3.137132 32.44222 3.162751
2003-02-07 08:51:16 51°10.443 2°41.207 -999 3.099863 32.032826 3.19646
2003-02-07 08:52:15 51°10.372 2°40.839 -999 3.109338 32.134414 3.23017
2003-02-07 08:53:16 51°10.298 2°40.457 -999 3.159453 32.648978 3.297589
2003-02-07 08:54:16 51°10.226 2°40.08 -999 3.198095 33.038661 3.634683
2003-02-07 08:55:16 51°10.154 2°39.704 -999 3.207046 33.132436 3.76952
2003-02-07 08:56:23 51°10.074 2°39.285 -999 3.194831 33.008221 3.836939
2003-02-07 08:57:32 51°9.997 2°38.848 -999 3.197148 33.034734 3.904358
2003-02-07 08:58:37 51°9.926 2°38.434 -999 3.203571 33.10133 4.140324
2003-02-07 08:59:36 51°9.866 2°38.087 -999 3.21389 33.193415 4.34258
2003-02-07 09:00:35 51°9.783 2°37.968 -999 3.227789 33.317669 4.140324
2003-02-07 09:01:37 51°9.745 2°37.837 -999 3.237056 33.388798 4.174033
2003-02-07 09:02:35 51°9.785 2°37.748 -999 3.239057 33.412544 4.275161
2003-02-07 09:03:35 51°9.825 2°37.775 -999 3.23674 33.383444 4.376289
2003-02-07 09:04:37 51°9.837 2°37.862 -999 3.239057 33.408184 4.140324
2003-02-07 09:05:36 51°9.86 2°37.955 -999 3.238425 33.400961 4.106614
2003-02-07 09:06:36 51°9.873 2°38.009 -999 3.239478 33.413872 3.971777
2003-02-07 09:07:36 51°9.877 2°38.034 -999 3.240215 33.434515 3.904358
2003-02-07 09:08:36 51°9.878 2°38.053 -999 3.231685 33.347429 3.870648
2003-02-07 09:09:37 51°9.878 2°38.067 -999 3.229474 33.328235 3.904358
2003-02-07 09:10:37 51°9.877 2°38.077 -999 3.233476 33.378363 3.870648
2003-02-07 09:11:37 51°9.874 2°38.084 -999 3.230948 33.350323 3.836939
2003-02-07 09:12:37 51°9.869 2°38.088 -999 3.228316 33.323692 3.904358
2003-02-07 09:13:36 51°9.865 2°38.09 -999 3.231791 33.362574 3.870648
2003-02-07 09:14:36 51°9.858 2°38.088 -999 3.222524 33.267011 3.870648
2003-02-07 09:15:37 51°9.85 2°38.083 -999 3.21747 33.223091 3.702101
2003-02-07 09:16:36 51°9.841 2°38.074 -999 3.218207 33.241085 3.76952
2003-02-07 09:17:36 51°9.832 2°38.065 -999 3.215891 33.218917 3.80323
2003-02-07 09:18:37 51°9.824 2°38.052 -999 3.21389 33.203836 3.76952
2003-02-07 09:19:37 51°9.816 2°38.039 -999 3.20136 33.08468 3.735811
2003-02-07 09:20:36 51°9.806 2°38.024 -999 3.192725 33.003997 3.735811
2003-02-07 09:21:36 51°9.797 2°38.007 -999 3.18367 32.916717 3.735811
2003-02-07 09:22:37 51°9.786 2°37.988 -999 3.181248 32.894161 3.836939
2003-02-07 09:23:36 51°9.776 2°37.969 -999 3.184091 32.930172 3.76952
2003-02-07 09:24:36 51°9.767 2°37.949 -999 3.185039 32.923762 3.80323
2003-02-07 09:25:36 51°9.757 2°37.928 -999 3.18546 32.939806 3.76952
2003-02-07 09:26:35 51°9.748 2°37.907 -999 3.179985 32.888314 3.735811
2003-02-07 09:27:37 51°9.74 2°37.882 -999 3.173983 32.829912 3.76952
2003-02-07 09:28:37 51°9.71 2°37.846 -999 3.168929 32.781488 3.76952
2003-02-07 09:29:37 51°9.641 2°37.621 -999 3.16377 32.730126 3.938067
2003-02-07 09:30:36 51°9.637 2°37.243 -999 3.162191 32.723201 4.039195
2003-02-07 09:31:37 51°9.636 2°36.837 -999 3.185881 32.951541 4.039195
2003-02-07 09:32:37 51°9.635 2°36.435 -999 3.225999 33.321571 4.241452
2003-02-07 09:33:36 51°9.658 2°36.048 -999 3.242216 33.451285 4.34258
2003-02-07 09:34:37 51°9.776 2°35.708 -999 3.257064 33.580826 4.645965
2003-02-07 09:35:35 51°9.959 2°35.491 -999 3.261802 33.61309 4.578546
2003-02-07 09:36:37 51°10.183 2°35.4 -999 3.260118 33.603471 4.578546
2003-02-07 09:37:37 51°10.401 2°35.455 -999 3.260749 33.588808 4.376289
2003-02-07 09:38:37 51°10.603 2°35.584 -999 3.276966 33.699498 4.308871
2003-02-07 09:39:37 51°10.787 2°35.767 -999 3.278967 33.71093 4.443708
2003-02-07 09:40:37 51°10.958 2°35.981 -999 3.279178 33.716834 4.713383
2003-02-07 09:41:36 51°11.126 2°36.197 -999 3.278441 33.713683 4.544836
2003-02-07 09:42:36 51°11.291 2°36.425 -999 3.278757 33.713783 4.376289
2003-02-07 09:43:37 51°11.458 2°36.66 -999 3.281916 33.734037 4.207742
2003-02-07 09:44:36 51°11.621 2°36.883 -999 3.284759 33.748926 4.34258
2003-02-07 09:45:37 51°11.789 2°37.113 -999 3.276019 33.686064 3.938067
2003-02-07 09:46:37 51°11.954 2°37.339 -999 3.25938 33.557444 3.836939
2003-02-07 09:47:36 51°12.116 2°37.557 -999 3.251272 33.49106 4.106614
2003-02-07 09:48:37 51°12.284 2°37.785 -999 3.236002 33.348909 4.072905
2003-02-07 09:49:37 51°12.458 2°37.986 -999 3.227473 33.264518 4.005486
2003-02-07 09:50:36 51°12.64 2°38.168 -999 3.225156 33.243263 4.207742
2003-02-07 09:51:37 51°12.827 2°38.351 -999 3.22463 33.247658 4.443708
2003-02-07 09:52:36 51°13.009 2°38.53 -999 3.223577 33.246908 4.544836
2003-02-07 09:53:37 51°13.197 2°38.715 -999 3.21389 33.16219 4.275161
2003-02-07 09:54:37 51°13.389 2°38.873 5.295553 0.086192 0.690308 -0.814958
2003-02-07 09:55:36 51°13.582 2°39.028 5.445233 0.058323 0.459125 -0.848668
2003-02-07 09:56:37 51°13.791 2°39.159 5.531331 0.080264 0.640403 -0.814958
2003-02-07 09:57:37 51°14.01 2°39.081 5.613897 0.063626 0.501778 -0.848668
2003-02-07 09:58:37 51°14.214 2°38.893 5.699514 0.070905 0.560834 -0.848668
2003-02-07 09:59:35 51°14.388 2°38.653 5.776251 0.06321 0.496416 -0.848668
2003-02-07 10:00:35 51°14.381 2°38.292 5.863549 0.059675 0.466756 -0.814958
2003-02-07 10:01:37 51°14.242 2°37.951 5.944384 0.070281 0.553097 -0.814958
2003-02-07 10:02:36 51°14.12 2°37.61 6.028108 0.062378 0.487611 -0.848668
2003-02-07 10:03:37 51°13.995 2°37.256 6.122583 0.078392 0.617475 -0.814958
2003-02-07 10:04:37 51°13.875 2°36.903 6.196271 0.056139 0.435707 -0.814958
2003-02-07 10:05:37 51°13.76 2°36.548 6.278272 0.069449 0.542982 -0.848668
2003-02-07 10:06:37 51°13.644 2°36.193 6.360068 0.059155 0.459096 -0.814958
2003-02-07 10:07:37 51°13.528 2°35.84 6.433529 0.05957 0.461493 -0.814958
2003-02-07 10:08:37 51°13.41 2°35.487 6.499726 0.06269 0.486307 -0.848668
2003-02-07 10:09:36 51°13.293 2°35.143 6.576539 0.070489 0.549628 -0.814958
2003-02-07 10:10:40 51°13.169 2°34.771 6.651529 0.076104 0.593169 -0.848668
2003-02-07 10:11:40 51°13.053 2°34.419 6.721645 0.062794 0.485792 -0.814958
2003-02-07 10:12:40 51°12.939 2°34.066 6.790796 0.06269 0.484397 -0.814958
2003-02-07 10:13:40 51°12.831 2°33.71 6.853027 0.077248 0.601751 -0.848668
2003-02-07 10:14:40 51°12.724 2°33.351 6.925529 0.061754 0.475525 -0.814958
2003-02-07 10:15:40 51°12.618 2°32.992 6.991609 0.071736 0.555804 -0.848668
2003-02-07 10:16:40 51°12.51 2°32.633 7.059928 0.058531 0.448631 -0.848668
2003-02-07 10:17:39 51°12.401 2°32.281 7.128125 0.063314 0.486379 -0.848668
2003-02-07 10:18:38 51°12.293 2°31.93 7.188852 0.059674 0.456637 -0.814958
2003-02-07 10:19:40 51°12.177 2°31.561 7.239586 0.061962 0.474922 -0.848668
2003-02-07 10:20:40 51°12.065 2°31.204 7.285534 0.060194 0.460369 -0.848668
2003-02-07 10:21:40 51°11.955 2°30.848 7.365021 0.067577 0.518857 -0.814958
2003-02-07 10:22:40 51°11.846 2°30.487 7.423523 0.072464 0.557082 -0.848668
2003-02-07 10:23:39 51°11.751 2°30.123 7.476704 0.062066 0.473232 -0.814958
2003-02-07 10:24:39 51°11.658 2°29.747 7.539927 0.061962 0.472616 -0.848668
2003-02-07 10:25:39 51°11.569 2°29.368 7.601919 0.066329 0.506459 -0.814958
2003-02-07 10:26:38 51°11.481 2°28.992 7.656801 0.071632 0.54884 -0.882377
2003-02-07 10:27:42 51°11.385 2°28.581 7.722324 0.056555 0.427947 -0.814958
2003-02-07 10:28:42 51°11.298 2°28.19 7.775258 0.066745 0.50813 -0.848668
2003-02-07 10:29:42 51°11.219 2°27.796 7.827275 0.063314 0.480539 -0.848668
2003-02-07 10:30:42 51°11.142 2°27.402 7.878814 0.062378 0.472441 -0.848668
2003-02-07 10:31:42 51°11.06 2°27.012 7.916315 0.084528 0.648638 -0.848668
2003-02-07 10:32:42 51°10.982 2°26.621 7.986364 0.062378 0.47167 -0.814958
2003-02-07 10:33:42 51°10.943 2°26.222 8.042175 0.079952 0.61039 -0.814958
2003-02-07 10:34:42 51°11.004 2°25.838 8.092962 0.0708 0.537115 -0.848668
2003-02-07 10:35:42 51°11.125 2°25.499 8.160648 0.064873 0.490269 -0.848668
2003-02-07 10:36:45 51°11.321 2°25.251 8.213897 0.069656 0.526381 -0.848668
2003-02-07 10:37:47 51°11.548 2°25.183 8.266427 0.064977 0.48929 -0.848668
2003-02-07 10:38:51 51°11.767 2°25.296 8.334412 0.067265 0.507171 -0.814958
2003-02-07 10:39:51 51°11.956 2°25.461 8.381796 0.072152 0.544308 -0.848668
2003-02-07 10:40:57 51°12.163 2°25.641 8.441156 0.051357 0.382114 -0.848668
2003-02-07 10:41:57 51°12.346 2°25.804 8.492926 0.068928 0.518649 -0.848668
2003-02-07 10:43:02 51°12.545 2°25.979 8.540193 0.050941 0.377895 -0.814958
2003-02-07 10:44:01 51°12.727 2°26.132 8.60051 0.052916 0.392573 -0.814958
2003-02-07 10:45:02 51°12.911 2°26.304 8.650093 0.051668 0.382005 -0.814958
2003-02-07 10:46:05 51°13.078 2°26.536 8.677096 0.053956 0.399101 -0.848668
2003-02-07 10:47:05 51°13.23 2°26.77 8.73566 0.050525 0.372369 -0.848668
2003-02-07 10:48:11 51°13.399 2°27.029 8.78729 0.094824 0.718241 -0.848668
2003-02-07 10:49:15 51°13.564 2°27.28 8.821018 0.048341 0.354664 -0.848668
2003-02-07 10:50:15 51°13.716 2°27.517 8.864991 0.055411 0.409165 -0.848668
2003-02-07 10:51:18 51°13.874 2°27.763 8.91895 0.050733 0.372792 -0.814958
2003-02-07 10:52:17 51°14.021 2°27.995 8.963333 0.056035 0.412738 -0.814958
2003-02-07 10:53:22 51°14.185 2°28.249 9.02359 0.067785 0.502665 -0.814958
2003-02-07 10:54:25 51°14.344 2°28.494 9.058148 0.067265 0.497929 -0.814958
2003-02-07 10:55:24 51°14.493 2°28.722 9.099725 0.054995 0.403522 -0.848668
2003-02-07 10:56:25 51°14.653 2°28.947 9.130439 0.062274 0.458675 -0.814958
2003-02-07 10:57:25 51°14.809 2°29.169 9.166982 0.044703 0.324407 -0.814958
2003-02-07 10:58:35 51°14.99 2°29.426 9.217272 0.062897 0.46279 -0.848668
2003-02-07 10:59:36 51°15.146 2°29.65 9.244989 0.045119 0.327024 -0.814958
2003-02-07 11:00:37 51°15.308 2°29.864 9.307308 0.051772 0.376572 -0.848668
2003-02-07 11:01:37 51°15.469 2°30.072 9.359763 0.078703 0.581476 -0.848668
2003-02-07 11:02:37 51°15.629 2°30.283 9.372456 0.043663 0.315169 -0.848668
2003-02-07 11:03:36 51°15.785 2°30.487 9.42448 0.049693 0.359731 -0.848668
2003-02-07 11:04:36 51°15.942 2°30.695 9.456838 0.047822 0.345146 -0.814958
2003-02-07 11:05:36 51°16.099 2°30.904 9.489132 0.048861 0.353176 -0.814958
2003-02-07 11:06:39 51°16.268 2°31.128 9.537898 0.042416 0.304573 -0.814958
2003-02-07 11:07:40 51°16.429 2°31.341 9.564628 0.061754 0.449791 -0.814958
2003-02-07 11:08:40 51°16.589 2°31.553 9.60593 0.049797 0.358499 -0.848668
2003-02-07 11:09:50 51°16.779 2°31.803 9.637302 0.068408 0.499194 -0.848668
2003-02-07 11:10:50 51°16.943 2°32.012 9.685203 0.048445 0.34834 -0.814958
2003-02-07 11:11:50 51°17.106 2°32.216 9.718986 0.053956 0.389473 -0.814958
2003-02-07 11:12:50 51°17.266 2°32.415 9.753081 0.061338 0.443358 -0.814958
2003-02-07 11:13:50 51°17.426 2°32.612 9.792052 0.047302 0.339039 -0.848668
2003-02-07 11:14:55 51°17.601 2°32.822 9.829823 0.097944 0.723881 -0.814958
2003-02-07 11:15:59 51°17.773 2°33.032 9.869453 0.056659 0.407047 -0.814958
2003-02-07 11:17:05 51°17.954 2°33.249 9.897316 0.051356 0.367492 -0.848668
2003-02-07 11:18:15 51°18.143 2°33.48 9.904315 0.057594 0.414642 -0.814958
2003-02-07 11:19:20 51°18.321 2°33.692 9.969103 0.052604 0.376208 -0.848668
2003-02-07 11:20:27 51°18.501 2°33.914 9.996173 0.049173 0.350533 -0.848668
2003-02-07 11:21:28 51°18.665 2°34.114 10.033452 0.151837 1.139904 -0.848668
2003-02-07 11:22:32 51°18.836 2°34.325 10.060729 0.055931 0.400295 -0.848668
2003-02-07 11:23:35 51°19.009 2°34.525 10.091789 0.055203 0.393979 -0.848668
2003-02-07 11:24:40 51°19.186 2°34.734 10.132009 0.048341 0.342859 -0.814958
2003-02-07 11:25:42 51°19.356 2°34.93 10.151619 0.050836 0.361453 -0.848668
2003-02-07 11:26:42 51°19.525 2°35.12 10.197086 0.043247 0.30537 -0.814958
2003-02-07 11:27:46 51°19.703 2°35.322 10.213871 0.074959 0.539722 -0.848668
2003-02-07 11:28:45 51°19.868 2°35.512 10.249858 0.056347 0.401296 -0.814958
2003-02-07 11:29:46 51°20.038 2°35.709 10.281482 0.046678 0.329748 -0.814958
2003-02-07 11:30:45 51°20.202 2°35.902 10.316451 0.051252 0.363234 -0.848668
2003-02-07 11:31:45 51°20.374 2°36.095 10.341744 0.048965 0.345887 -0.848668
2003-02-07 11:32:46 51°20.513 2°36.336 10.37393 0.062273 0.444336 -0.814958
2003-02-07 11:33:46 51°20.6 2°36.632 10.399807 0.05198 0.367894 -0.814958
2003-02-07 11:34:46 51°20.67 2°36.939 10.439838 0.070592 0.505463 -0.814958
2003-02-07 11:35:46 51°20.74 2°37.251 10.457073 0.045846 0.322597 -0.814958
2003-02-07 11:36:47 51°20.793 2°37.577 10.498931 0.05853 0.415325 -0.814958
2003-02-07 11:37:48 51°20.817 2°37.917 10.534064 0.07132 0.509801 -0.814958
2003-02-07 11:38:55 51°20.834 2°38.286 10.560715 0.059154 0.419034 -0.848668
2003-02-07 11:39:55 51°20.842 2°38.623 10.580708 0.049797 0.350267 -0.848668
2003-02-07 11:41:04 51°20.845 2°39.012 10.625692 0.066432 0.472777 -0.848668
2003-02-07 11:42:04 51°20.847 2°39.351 10.653374 0.084319 0.60548 -0.848668
2003-02-07 11:43:04 51°20.849 2°39.694 10.681555 0.045222 0.316318 -0.814958
2003-02-07 11:44:04 51°20.85 2°40.043 10.705686 0.057282 0.404491 -0.814958
2003-02-07 11:45:04 51°20.852 2°40.386 10.740987 0.049797 0.349523 -0.848668
2003-02-07 11:46:09 51°20.847 2°40.76 10.779744 0.047198 0.330332 -0.848668
2003-02-07 11:47:09 51°20.841 2°41.105 10.802311 0.045846 0.320244 -0.848668
2003-02-07 11:48:08 51°20.835 2°41.446 10.833808 0.045846 0.320165 -0.814958
2003-02-07 11:49:08 51°20.83 2°41.789 10.85182 0.057698 0.406317 -0.814958
2003-02-07 11:50:08 51°20.781 2°42.117 10.888198 0.071528 0.507653 -0.814958
2003-02-07 11:51:09 51°20.677 2°42.433 10.905964 0.057178 0.401842 -0.848668
2003-02-07 11:52:09 51°20.576 2°42.747 10.937227 0.045326 0.315241 -0.814958
2003-02-07 11:53:15 51°20.469 2°43.089 10.954378 0.060921 0.428525 -0.814958
2003-02-07 11:54:14 51°20.375 2°43.394 10.990238 0.059258 0.416274 -0.814958
2003-02-07 11:55:17 51°20.274 2°43.719 11.013887 0.069448 0.490931 -0.848668
2003-02-07 11:56:17 51°20.179 2°44.029 11.031665 0.056243 0.393385 -0.814958
2003-02-07 11:57:17 51°20.087 2°44.342 11.052114 0.056451 0.395378 -0.814958
2003-02-07 11:58:16 51°19.996 2°44.654 11.078187 0.067264 0.474042 -0.814958
2003-02-07 11:59:17 51°19.899 2°44.977 11.100836 0.049693 0.346201 -0.814958
2003-02-07 12:00:15 51°19.811 2°45.282 11.117668 0.067576 0.475904 -0.814958
2003-02-07 12:01:17 51°19.718 2°45.606 11.14754 0.050316 0.350557 -0.814958
2003-02-07 12:02:17 51°19.624 2°45.914 11.161365 0.047509 0.329607 -0.814958
2003-02-07 12:03:19 51°19.526 2°46.236 11.193658 0.05853 0.409441 -0.814958
2003-02-07 12:04:24 51°19.419 2°46.569 11.224232 0.069864 0.492007 -0.848668
2003-02-07 12:05:21 51°19.331 2°46.866 11.236936 0.053331 0.371525 -0.814958
2003-02-07 12:06:21 51°19.237 2°47.176 11.262613 0.046574 0.322677 -0.848668
2003-02-07 12:07:25 51°19.136 2°47.512 11.295317 0.049277 0.342216 -0.814958
2003-02-07 12:08:27 51°19.037 2°47.836 11.316007 0.063625 0.4461 -0.848668
2003-02-07 12:09:27 51°18.944 2°48.15 11.330026 0.059154 0.413432 -0.848668
2003-02-07 12:10:27 51°18.851 2°48.46 11.345513 0.044806 0.309832 -0.814958
2003-02-07 12:11:27 51°18.757 2°48.768 11.369862 0.052188 0.362786 -0.848668
2003-02-07 12:12:27 51°18.667 2°49.075 11.388967 0.074335 0.523906 -0.814958
2003-02-07 12:13:37 51°18.556 2°49.436 11.363293 0.135603 0.981984 -0.814958
2003-02-07 12:14:37 51°18.649 2°49.621 11.33237 0.03701 0.253877 -0.848668
2003-02-07 12:15:39 51°18.713 2°49.328 11.40242 0.038881 0.267165 -0.848668
2003-02-07 12:16:38 51°18.619 2°49.079 11.407608 0.042727 0.294313 -0.814958
2003-02-07 12:17:38 51°18.56 2°48.998 11.432714 0.040856 0.280633 -0.848668
2003-02-07 12:18:38 51°18.542 2°48.972 11.447993 0.039609 0.271831 -0.848668
2003-02-07 12:19:39 51°18.52 2°48.952 11.467489 0.039193 0.269184 -0.848668
2003-02-07 12:20:39 51°18.5 2°48.935 11.492159 0.042104 0.289615 -0.814958
2003-02-07 12:21:38 51°18.48 2°48.918 11.5143 0.050109 0.346977 -0.848668
2003-02-07 12:22:38 51°18.461 2°48.9 11.532356 0.049797 0.344354 -0.814958
2003-02-07 12:23:44 51°18.44 2°48.882 11.556452 0.058426 0.405422 -0.814958
2003-02-07 12:24:46 51°18.416 2°48.868 11.571886 0.072775 0.510702 -0.814958
2003-02-07 12:25:45 51°18.391 2°48.854 11.595328 0.052812 0.365726 -0.848668
2003-02-07 12:26:45 51°18.368 2°48.838 11.606359 0.042415 0.291407 -0.848668
2003-02-07 12:27:43 51°18.348 2°48.822 11.624572 0.044183 0.303741 -0.814958
2003-02-07 12:28:45 51°18.326 2°48.804 11.640082 0.046886 0.322771 -0.848668
2003-02-07 12:29:49 51°18.306 2°48.784 11.660389 0.039193 0.268234 -0.814958
2003-02-07 12:30:49 51°18.284 2°48.767 11.671958 0.054683 0.379131 -0.848668
2003-02-07 12:31:49 51°18.215 2°48.857 11.672416 0.034619 0.235966 -0.848668
2003-02-07 12:32:49 51°18.203 2°49.122 11.70062 0.039089 0.267726 -0.814958
2003-02-07 12:33:53 51°18.203 2°49.478 11.723651 0.035659 0.24342 -0.848668
2003-02-07 12:34:54 51°18.201 2°49.815 11.740553 0.038361 0.26234 -0.848668
2003-02-07 12:35:54 51°18.198 2°50.145 11.755807 0.038153 0.260739 -0.848668
2003-02-07 12:36:54 51°18.183 2°50.476 11.770464 0.050108 0.3458 -0.848668
2003-02-07 12:38:00 51°18.1 2°50.829 11.796756 0.037737 0.257747 -0.848668
2003-02-07 12:38:57 51°18.022 2°51.129 11.809852 0.040752 0.278998 -0.814958
2003-02-07 12:40:02 51°17.93 2°51.467 11.828694 0.035555 0.242012 -0.848668
2003-02-07 12:41:07 51°17.813 2°51.79 11.838956 0.042415 0.290472 -0.814958
2003-02-07 12:42:07 51°17.638 2°52.026 11.838455 0.080159 0.561813 -0.848668
2003-02-07 12:43:07 51°17.441 2°52.227 11.84753 0.059362 0.4109 -0.848668
2003-02-07 12:44:07 51°17.228 2°52.399 11.852592 0.068096 0.473622 -0.848668
2003-02-07 12:45:07 51°17.017 2°52.572 11.869735 0.043143 0.294907 -0.814958
2003-02-07 12:46:07 51°16.806 2°52.748 11.885141 0.039505 0.269481 -0.848668
2003-02-07 12:47:06 51°16.613 2°52.959 11.898721 0.035139 0.239015 -0.814958
2003-02-07 12:48:14 51°16.408 2°53.233 11.918494 0.039193 0.267419 -0.848668
2003-02-07 12:49:14 51°16.23 2°53.465 11.935256 0.03753 0.255726 -0.781249
2003-02-07 12:50:19 51°16.034 2°53.708 11.953561 0.043039 0.2943 -0.814958
2003-02-07 12:51:19 51°15.83 2°53.877 11.968993 0.034099 0.231411 -0.848668
2003-02-07 12:52:20 51°15.62 2°54.051 11.982374 0.033268 0.225663 -0.848668
2003-02-07 12:53:20 51°15.406 2°54.193 11.991384 0.038361 0.261111 -0.814958
2003-02-07 12:54:20 51°15.193 2°54.325 12.009174 0.03649 0.248017 -0.814958
2003-02-07 12:55:20 51°14.989 2°54.443 12.018135 0.038777 0.264026 -0.848668
2003-02-07 12:56:20 51°14.794 2°54.56 12.034643 0.033995 0.230493 -0.848668
2003-02-07 12:57:20 51°14.608 2°54.703 12.025594 0.033995 0.230415 -0.848668
2003-02-07 12:58:20 51°14.46 2°54.925 12.057649 0.035451 0.24051 -0.814958
2003-02-07 12:59:20 51°14.326 2°55.167 12.071012 0.033268 0.225212 -0.814958
2003-02-07 13:00:20 51°14.22 2°55.331 12.074875 0.042104 0.287172 -0.848668
2003-02-07 13:01:21 51°14.128 2°55.413 12.072421 0.034099 0.230904 -0.814958
2003-02-07 13:02:20 51°14.046 2°55.473 12.087053 0.034723 0.235147 -0.814958
2003-02-07 13:03:20 51°13.962 2°55.535 12.118261 0.033891 0.22927 -0.814958
2003-02-07 13:04:21 51°13.874 2°55.598 12.128888 0.034203 0.231352 -0.814958
2003-02-07 13:05:21 51°13.791 2°55.664 12.14832 0.034515 0.233464 -0.814958